TNCM/SXM METAR and TAF weather

Enter ICAO airport designator
Station Type Date Time Source
TNCM METAR 2019/08/25 13:00 UTC NOAA

TNCM 251300Z 08009KT 050V110 9999 FEW022 30/24 Q1018 NOSIG RMK A3007


Station Type Date Time Source
TNCM Decoded METAR 2019/08/25 13:00 UTC NOAA

Station name not available
Aug 25, 2019 - 09:00 AM EDT / 2019.08.25 1300 UTC
Wind: from the E (080 degrees) at 10 MPH (9 KT) (direction variable):0
Visibility: greater than 7 mile(s):0
Sky conditions: mostly clear
Temperature: 86 F (30 C)
Heat index: 95.0 F (35.0 C):1
Dew Point: 75 F (24 C)
Relative Humidity: 70%
Pressure (altimeter): 30.06 in. Hg (1018 hPa)
ob: TNCM 251300Z 08009KT 050V110 9999 FEW022 30/24 Q1018 NOSIG RMK A3007
cycle: 13

Station Type Date Time Source
TNCM TAF 2019/08/25 12:42 UTC NOAA

TAF TNCM 251138Z 2512/2612 08010KT P6SM SCT018
FM251400 10009KT P6SM FEW022
FM260300 10009KT P6SM SCT020

Example: see airport list